createdAt,value
2017-12-29T00:01:17.570Z,97662.98
2017-12-29T00:03:45.303Z,97683.13
2017-12-29T00:06:12.879Z,97681.98
2017-12-29T00:08:40.529Z,97674.11
2017-12-29T00:11:08.206Z,97687.56
2017-12-29T00:13:35.766Z,97687.72
2017-12-29T00:16:03.325Z,97682.02
2017-12-29T00:18:31.211Z,97691.05
2017-12-29T00:20:58.769Z,97690.92
2017-12-29T00:23:26.649Z,97697.70
2017-12-29T00:25:54.345Z,97697.50
2017-12-29T00:28:22.083Z,97707.41
2017-12-29T00:30:49.646Z,97701.08
2017-12-29T00:33:17.205Z,97686.97
2017-12-29T00:35:44.814Z,97686.25
2017-12-29T00:38:12.527Z,97683.26
2017-12-29T00:40:40.078Z,97681.11
2017-12-29T00:43:07.641Z,97677.33
2017-12-29T00:45:35.199Z,97678.27
2017-12-29T00:48:02.822Z,97683.67
2017-12-29T00:50:30.381Z,97688.94
2017-12-29T00:52:57.942Z,97687.99
2017-12-29T00:55:25.642Z,97691.55
2017-12-29T00:57:53.193Z,97700.34
2017-12-29T01:00:21.015Z,97691.21
2017-12-29T01:02:48.834Z,97686.89
2017-12-29T01:05:16.382Z,97694.71
2017-12-29T01:07:44.170Z,97693.39
2017-12-29T01:10:11.717Z,97699.27
2017-12-29T01:12:39.506Z,97695.66
2017-12-29T01:15:07.079Z,97697.13
2017-12-29T01:17:34.660Z,97702.82
2017-12-29T01:20:02.239Z,97710.77
2017-12-29T01:22:29.811Z,97710.47
2017-12-29T01:24:57.506Z,97714.14
2017-12-29T01:27:25.770Z,97724.52
2017-12-29T01:29:53.534Z,97730.63
2017-12-29T01:32:21.116Z,97734.72
2017-12-29T01:34:48.782Z,97728.89
2017-12-29T01:37:16.431Z,97737.85
2017-12-29T01:39:44.206Z,97732.39
2017-12-29T01:42:11.765Z,97734.53
2017-12-29T01:44:40.746Z,97730.03
2017-12-29T01:47:08.565Z,97727.59
2017-12-29T01:49:36.139Z,97722.41
2017-12-29T01:52:03.902Z,97727.73
2017-12-29T01:54:31.785Z,97727.25
2017-12-29T01:56:59.345Z,97725.70
2017-12-29T01:59:27.057Z,97727.00
2017-12-29T02:01:54.623Z,97729.73
2017-12-29T02:04:22.175Z,97729.97
2017-12-29T02:06:50.010Z,97737.62
2017-12-29T02:09:17.728Z,97741.34
2017-12-29T02:11:45.297Z,97743.48
2017-12-29T02:14:12.942Z,97732.28
2017-12-29T02:16:40.489Z,97724.98
2017-12-29T02:19:08.101Z,97719.99
2017-12-29T02:21:35.661Z,97725.79
2017-12-29T02:24:03.220Z,97720.83
2017-12-29T02:26:30.955Z,97721.83
2017-12-29T02:28:58.513Z,97717.51
2017-12-29T02:31:26.129Z,97708.25
2017-12-29T02:33:53.686Z,97713.29
2017-12-29T02:36:21.424Z,97716.14
2017-12-29T02:38:48.991Z,97721.89
2017-12-29T02:41:16.554Z,97727.21
2017-12-29T02:43:44.186Z,97724.09
2017-12-29T02:46:11.752Z,97739.53
2017-12-29T02:48:39.321Z,97737.03
2017-12-29T02:51:06.886Z,97737.20
2017-12-29T02:53:34.441Z,97748.00
2017-12-29T02:56:02.083Z,97747.22
2017-12-29T02:58:29.638Z,97750.83
2017-12-29T03:00:57.379Z,97749.83
2017-12-29T03:03:24.939Z,97741.95
2017-12-29T03:05:52.498Z,97741.58
2017-12-29T03:08:20.166Z,97735.25
2017-12-29T03:10:47.736Z,97746.66
2017-12-29T03:13:15.491Z,97747.09
2017-12-29T03:15:43.085Z,97739.56
2017-12-29T03:18:10.794Z,97749.51
2017-12-29T03:20:38.646Z,97755.30
2017-12-29T03:23:06.354Z,97757.30
2017-12-29T03:25:33.909Z,97757.88
2017-12-29T03:28:01.659Z,97760.52
2017-12-29T03:30:29.419Z,97761.78
2017-12-29T03:32:57.030Z,97757.36
2017-12-29T03:35:24.585Z,97756.72
2017-12-29T03:37:52.137Z,97760.14
2017-12-29T03:40:19.698Z,97758.43
2017-12-29T03:42:47.258Z,97760.86
2017-12-29T03:45:14.874Z,97761.61
2017-12-29T03:47:42.465Z,97766.83
2017-12-29T03:50:10.021Z,97772.13
2017-12-29T03:52:37.563Z,97771.62
2017-12-29T03:55:05.198Z,97773.27
2017-12-29T03:57:33.115Z,97779.19
2017-12-29T04:00:00.678Z,97790.84
2017-12-29T04:02:28.451Z,97783.30
2017-12-29T04:04:56.046Z,97785.33
2017-12-29T04:07:23.605Z,97783.09
2017-12-29T04:09:51.218Z,97787.38
2017-12-29T04:12:19.023Z,97799.50
2017-12-29T04:14:46.845Z,97812.75
2017-12-29T04:17:14.659Z,97805.95
2017-12-29T04:19:42.380Z,97810.05
2017-12-29T04:22:10.065Z,97808.84
2017-12-29T04:24:37.706Z,97809.83
2017-12-29T04:27:05.432Z,97815.24
2017-12-29T04:29:32.993Z,97830.36
2017-12-29T04:32:00.769Z,97828.24
2017-12-29T04:34:28.377Z,97838.89
2017-12-29T04:36:55.946Z,97839.36
2017-12-29T04:39:23.532Z,97851.61
2017-12-29T04:41:51.089Z,97859.81
2017-12-29T04:44:18.647Z,97856.49
2017-12-29T04:46:46.262Z,97858.84
2017-12-29T04:49:14.093Z,97849.91
2017-12-29T04:51:41.654Z,97851.69
2017-12-29T04:54:09.230Z,97850.70
2017-12-29T04:56:36.786Z,97855.11
2017-12-29T04:59:04.416Z,97850.95
2017-12-29T05:01:32.084Z,97856.95
2017-12-29T05:03:59.901Z,97863.78
2017-12-29T05:06:27.492Z,97865.88
2017-12-29T05:08:55.046Z,97874.15
2017-12-29T05:11:22.857Z,97863.50
2017-12-29T05:13:50.431Z,97864.14
2017-12-29T05:16:17.994Z,97856.73
2017-12-29T05:18:45.566Z,97867.31
2017-12-29T05:21:13.121Z,97861.87
2017-12-29T05:23:40.746Z,97868.27
2017-12-29T05:26:08.312Z,97871.59
2017-12-29T05:28:35.878Z,97873.14
2017-12-29T05:31:03.698Z,97873.45
2017-12-29T05:33:31.272Z,97874.34
2017-12-29T05:35:58.919Z,97868.08
2017-12-29T05:38:26.482Z,97871.41
2017-12-29T05:40:54.251Z,97871.81
2017-12-29T05:43:21.878Z,97878.21
2017-12-29T05:45:49.450Z,97880.17
2017-12-29T05:48:17.065Z,97879.03
2017-12-29T05:50:44.621Z,97880.05
2017-12-29T05:53:12.333Z,97878.41
2017-12-29T05:55:39.910Z,97871.38
2017-12-29T05:58:07.580Z,97873.08
2017-12-29T06:00:35.416Z,97868.52
2017-12-29T06:03:03.234Z,97865.92
2017-12-29T06:05:30.866Z,97866.50
2017-12-29T06:07:58.495Z,97875.58
2017-12-29T06:10:26.057Z,97868.80
2017-12-29T06:12:53.904Z,97864.97
2017-12-29T06:15:21.722Z,97871.77
2017-12-29T06:17:49.282Z,97872.03
2017-12-29T06:20:17.059Z,97865.23
2017-12-29T06:22:44.777Z,97868.33
2017-12-29T06:25:12.446Z,97872.28
2017-12-29T06:27:40.009Z,97871.97
2017-12-29T06:30:07.702Z,97875.86
2017-12-29T06:32:35.282Z,97878.83
2017-12-29T06:35:03.070Z,97885.06
2017-12-29T06:37:30.739Z,97896.69
2017-12-29T06:39:58.305Z,97899.38
2017-12-29T06:42:25.870Z,97900.32
2017-12-29T06:44:53.442Z,97909.09
2017-12-29T06:47:21.084Z,97911.78
2017-12-29T06:49:48.712Z,97909.25
2017-12-29T06:52:16.274Z,97922.13
2017-12-29T06:54:43.843Z,97920.72
2017-12-29T06:57:11.519Z,97920.09
2017-12-29T06:59:39.248Z,97931.09
2017-12-29T07:02:06.873Z,97934.61
2017-12-29T07:04:34.434Z,97936.38
2017-12-29T07:07:02.198Z,97940.11
2017-12-29T07:09:29.810Z,97933.38
2017-12-29T07:11:57.373Z,97935.03
2017-12-29T07:14:24.986Z,97935.07
2017-12-29T07:16:52.545Z,97933.94
2017-12-29T07:19:20.202Z,97936.17
2017-12-29T07:21:47.773Z,97940.56
2017-12-29T07:24:15.342Z,97933.84
2017-12-29T07:26:42.973Z,97938.88
2017-12-29T07:29:10.547Z,97937.67
2017-12-29T07:31:38.110Z,97936.97
2017-12-29T07:34:05.689Z,97940.12
2017-12-29T07:36:33.252Z,97940.55
2017-12-29T07:39:00.883Z,97943.34
2017-12-29T07:41:28.449Z,97941.22
2017-12-29T07:43:56.009Z,97947.14
2017-12-29T07:46:23.577Z,97961.11
2017-12-29T07:48:51.144Z,97965.05
2017-12-29T07:51:19.123Z,97970.12
2017-12-29T07:53:46.681Z,97964.89
2017-12-29T07:56:14.247Z,97968.47
2017-12-29T07:58:41.973Z,97973.05
2017-12-29T08:01:09.692Z,97974.50
2017-12-29T08:03:37.603Z,97977.61
2017-12-29T08:06:05.170Z,97975.59
2017-12-29T08:08:32.812Z,97977.82
2017-12-29T08:11:00.457Z,97976.16
2017-12-29T08:13:28.285Z,97980.93
2017-12-29T08:15:55.898Z,97984.66
2017-12-29T08:18:23.461Z,97982.01
2017-12-29T08:20:51.127Z,97987.40
2017-12-29T08:23:18.958Z,97991.20
2017-12-29T08:25:46.538Z,97992.23
2017-12-29T08:28:14.297Z,97995.44
2017-12-29T08:30:41.833Z,97996.60
2017-12-29T08:33:09.401Z,97991.31
2017-12-29T08:35:36.974Z,97992.98
2017-12-29T08:38:04.763Z,97995.84
2017-12-29T08:40:32.652Z,98005.94
2017-12-29T08:43:00.214Z,98006.09
2017-12-29T08:45:28.025Z,97998.48
2017-12-29T08:47:55.837Z,98005.58
2017-12-29T08:50:23.474Z,97993.89
2017-12-29T08:52:51.098Z,98000.18
2017-12-29T08:55:18.656Z,98012.91
2017-12-29T08:57:46.366Z,98008.64
2017-12-29T09:00:13.950Z,98004.95
2017-12-29T09:02:41.509Z,98007.39
2017-12-29T09:05:09.254Z,98012.73
2017-12-29T09:07:36.826Z,98016.90
2017-12-29T09:10:04.398Z,98007.03
2017-12-29T09:12:32.217Z,98013.68
2017-12-29T09:14:59.763Z,98014.11
2017-12-29T09:17:27.552Z,98014.05
2017-12-29T09:19:55.371Z,98017.41
2017-12-29T09:22:22.995Z,98011.39
2017-12-29T09:24:50.598Z,98021.73
2017-12-29T09:27:18.288Z,98024.89
2017-12-29T09:29:46.149Z,98030.14
2017-12-29T09:32:13.718Z,98025.66
2017-12-29T09:34:41.479Z,98035.68
2017-12-29T09:37:09.089Z,98034.44
2017-12-29T09:42:03.575Z,98036.66
2017-12-29T09:44:31.329Z,98043.39
2017-12-29T09:46:59.068Z,98046.41
2017-12-29T09:49:26.654Z,98041.95
2017-12-29T09:51:54.267Z,98047.34
2017-12-29T09:54:22.097Z,98037.90
2017-12-29T09:56:49.664Z,98036.86
2017-12-29T09:59:17.238Z,98041.80
2017-12-29T10:01:44.813Z,98033.54
2017-12-29T10:04:12.592Z,98035.20
2017-12-29T10:06:40.225Z,98038.20
2017-12-29T10:09:07.798Z,98032.23
2017-12-29T10:11:35.381Z,98031.16
2017-12-29T10:14:03.055Z,98021.23
2017-12-29T10:16:30.619Z,98021.54
2017-12-29T10:18:58.401Z,98027.05
2017-12-29T10:21:26.008Z,98027.05
2017-12-29T10:23:53.596Z,98028.82
2017-12-29T10:26:21.170Z,98027.92
2017-12-29T10:28:48.768Z,98031.77
2017-12-29T10:31:16.590Z,98033.63
2017-12-29T10:33:44.171Z,98024.02
2017-12-29T10:36:11.737Z,98018.27
2017-12-29T10:38:39.314Z,98010.06
2017-12-29T10:41:06.876Z,97998.64
2017-12-29T10:43:34.680Z,98005.16
2017-12-29T10:46:02.273Z,98008.47
2017-12-29T10:48:29.854Z,98001.92
2017-12-29T10:50:57.440Z,97998.92
2017-12-29T10:53:25.254Z,97981.75
2017-12-29T10:55:52.877Z,97984.80
2017-12-29T10:58:20.461Z,97985.23
2017-12-29T11:00:48.235Z,97977.53
2017-12-29T11:03:15.814Z,97986.72
2017-12-29T11:05:43.385Z,97976.23
2017-12-29T11:08:11.078Z,97984.42
2017-12-29T11:10:38.668Z,97984.11
2017-12-29T11:13:06.229Z,97963.79
2017-12-29T11:15:33.806Z,97959.36
2017-12-29T11:18:01.504Z,97959.47
2017-12-29T11:20:29.349Z,97964.98
2017-12-29T11:22:57.171Z,97965.56
2017-12-29T11:25:24.733Z,97968.84
2017-12-29T11:27:52.396Z,97972.04
2017-12-29T11:30:19.971Z,97979.16
2017-12-29T11:32:47.597Z,97990.54
2017-12-29T11:35:15.358Z,97989.74
2017-12-29T11:37:42.934Z,98004.28
2017-12-29T11:40:10.507Z,97999.47
2017-12-29T11:42:38.311Z,98009.26
2017-12-29T11:45:06.023Z,98009.36
2017-12-29T11:47:33.607Z,98014.19
2017-12-29T11:50:01.171Z,98010.20
2017-12-29T11:52:28.983Z,98002.05
2017-12-29T11:54:56.719Z,97998.89
2017-12-29T11:57:24.459Z,97996.77
2017-12-29T11:59:52.026Z,97993.76
2017-12-29T12:02:19.590Z,97992.25
2017-12-29T12:04:47.265Z,97997.17
2017-12-29T12:07:15.804Z,97999.78
2017-12-29T12:09:43.429Z,98013.38
2017-12-29T12:12:11.233Z,98014.69
2017-12-29T12:14:38.802Z,98019.98
2017-12-29T12:17:06.382Z,98015.61
2017-12-29T12:19:34.192Z,98006.47
2017-12-29T12:22:01.863Z,98014.84
2017-12-29T12:24:29.399Z,98017.80
2017-12-29T12:26:56.958Z,98013.70
2017-12-29T12:29:24.757Z,98011.20
2017-12-29T12:31:52.576Z,98022.26
2017-12-29T12:34:20.494Z,98012.80
2017-12-29T12:36:48.054Z,98015.40
2017-12-29T12:39:15.831Z,98004.40
2017-12-29T12:41:45.694Z,97997.70
2017-12-29T12:44:13.264Z,98005.39
2017-12-29T12:46:40.943Z,98000.19
2017-12-29T12:49:08.524Z,98005.91
2017-12-29T12:51:36.090Z,98001.41
2017-12-29T12:54:03.665Z,98013.27
2017-12-29T12:56:31.237Z,98015.89
2017-12-29T12:58:58.929Z,98005.79
2017-12-29T13:01:26.700Z,98027.75
2017-12-29T13:03:54.309Z,98020.84
2017-12-29T13:06:21.925Z,98028.22
2017-12-29T13:08:49.509Z,98030.43
2017-12-29T13:11:17.110Z,98037.02
2017-12-29T13:13:44.889Z,98034.23
2017-12-29T13:16:12.495Z,98040.02
2017-12-29T13:18:40.090Z,98040.75
2017-12-29T13:21:07.661Z,98038.70
2017-12-29T13:23:35.461Z,98040.63
2017-12-29T13:26:03.470Z,98045.92
2017-12-29T13:28:31.198Z,98056.80
2017-12-29T13:30:58.777Z,98055.16
2017-12-29T13:33:26.343Z,98049.22
2017-12-29T13:35:53.998Z,98048.63
2017-12-29T13:38:21.570Z,98063.83
2017-12-29T13:40:49.130Z,98058.39
2017-12-29T13:43:16.797Z,98067.65
2017-12-29T13:45:44.363Z,98067.44
2017-12-29T13:48:11.989Z,98073.55
2017-12-29T13:50:39.721Z,98074.20
2017-12-29T13:53:07.343Z,98070.48
2017-12-29T13:55:35.197Z,98068.47
2017-12-29T13:58:02.790Z,98057.48
2017-12-29T14:00:30.398Z,98065.34
2017-12-29T14:02:57.983Z,98056.11
2017-12-29T14:05:25.558Z,98059.58
2017-12-29T14:07:53.157Z,98062.69
2017-12-29T14:10:20.801Z,98069.68
2017-12-29T14:12:48.481Z,98068.59
2017-12-29T14:15:16.153Z,98069.56
2017-12-29T14:17:43.691Z,98065.92
2017-12-29T14:20:11.274Z,98056.78
2017-12-29T14:22:38.850Z,98061.45
2017-12-29T14:25:06.710Z,98063.59
2017-12-29T14:27:34.530Z,98066.78
2017-12-29T14:30:02.133Z,98067.03
2017-12-29T14:32:29.969Z,98064.48
2017-12-29T14:34:57.547Z,98073.86
2017-12-29T14:37:25.237Z,98073.20
2017-12-29T14:39:52.836Z,98071.05
2017-12-29T14:42:20.638Z,98076.50
2017-12-29T14:44:48.356Z,98078.81
2017-12-29T14:47:16.121Z,98080.08
2017-12-29T14:49:44.095Z,98085.77
2017-12-29T14:52:11.658Z,98098.27
2017-12-29T14:54:39.431Z,98106.62
2017-12-29T14:57:06.983Z,98104.08
2017-12-29T14:59:34.522Z,98097.87
2017-12-29T15:02:02.248Z,98103.13
2017-12-29T15:04:29.816Z,98107.39
2017-12-29T15:06:57.620Z,98108.69
2017-12-29T15:09:25.212Z,98118.08
2017-12-29T15:11:52.779Z,98117.95
2017-12-29T15:14:20.394Z,98127.28
2017-12-29T15:16:48.076Z,98123.39
2017-12-29T15:19:15.909Z,98119.02
2017-12-29T15:21:43.482Z,98120.16
2017-12-29T15:24:11.035Z,98125.58
2017-12-29T15:26:38.750Z,98123.11
2017-12-29T15:29:06.372Z,98125.05
2017-12-29T15:31:33.994Z,98129.88
2017-12-29T15:34:01.574Z,98126.14
2017-12-29T15:36:29.334Z,98140.95
2017-12-29T15:38:56.938Z,98150.39
2017-12-29T15:41:24.670Z,98147.96
2017-12-29T15:43:52.234Z,98141.73
2017-12-29T15:46:19.791Z,98137.62
2017-12-29T15:48:47.345Z,98144.56
2017-12-29T15:51:25.882Z,98141.23
2017-12-29T15:53:53.483Z,98137.48
2017-12-29T15:56:21.211Z,98148.91
2017-12-29T15:58:48.785Z,98143.83
2017-12-29T16:01:26.328Z,98156.95
2017-12-29T16:03:53.902Z,98156.77
2017-12-29T16:06:21.513Z,98160.80
2017-12-29T16:08:49.236Z,98162.56
2017-12-29T16:11:16.802Z,98161.41
2017-12-29T16:13:44.550Z,98167.80
2017-12-29T16:16:12.130Z,98172.91
2017-12-29T16:18:39.912Z,98176.94
2017-12-29T16:21:07.582Z,98185.02
2017-12-29T16:23:35.232Z,98188.20
2017-12-29T16:26:02.835Z,98196.48
2017-12-29T16:28:30.415Z,98192.86
2017-12-29T16:30:58.030Z,98203.20
2017-12-29T16:33:25.654Z,98208.25
2017-12-29T16:35:53.340Z,98204.84
2017-12-29T16:38:20.905Z,98213.30
2017-12-29T16:40:48.471Z,98211.72
2017-12-29T16:43:16.084Z,98219.28
2017-12-29T16:45:43.866Z,98219.83
2017-12-29T16:48:11.509Z,98215.41
2017-12-29T16:50:39.141Z,98215.90
2017-12-29T16:53:06.842Z,98205.05
2017-12-29T16:55:34.491Z,98201.24
2017-12-29T16:58:02.177Z,98202.39
2017-12-29T17:00:29.929Z,98200.63
2017-12-29T17:02:57.634Z,98209.61
2017-12-29T17:05:25.701Z,98211.55
2017-12-29T17:07:53.276Z,98217.62
2017-12-29T17:10:20.904Z,98229.59
2017-12-29T17:12:48.712Z,98238.52
2017-12-29T17:15:16.337Z,98244.38
2017-12-29T17:17:43.937Z,98247.92
2017-12-29T17:20:11.534Z,98244.70
2017-12-29T17:22:39.234Z,98254.40
2017-12-29T17:25:06.801Z,98247.11
2017-12-29T17:27:34.465Z,98252.42
2017-12-29T17:30:02.052Z,98252.34
2017-12-29T17:32:29.622Z,98251.69
2017-12-29T17:34:57.473Z,98251.27
2017-12-29T17:37:25.043Z,98255.63
2017-12-29T17:39:52.670Z,98263.20
2017-12-29T17:42:20.389Z,98271.10
2017-12-29T17:44:47.979Z,98274.89
2017-12-29T17:47:15.752Z,98281.84
2017-12-29T17:49:43.315Z,98292.46
2017-12-29T17:52:10.889Z,98291.03
2017-12-29T17:54:38.780Z,98297.70
2017-12-29T17:57:06.564Z,98294.57
2017-12-29T17:59:34.429Z,98300.58
2017-12-29T18:02:02.372Z,98302.01
2017-12-29T18:04:30.193Z,98295.69
2017-12-29T18:06:57.770Z,98307.73
2017-12-29T18:09:25.374Z,98318.28
2017-12-29T18:11:53.315Z,98316.98
2017-12-29T18:14:21.134Z,98324.60
2017-12-29T18:16:48.826Z,98328.08
2017-12-29T18:19:16.649Z,98325.36
2017-12-29T18:21:44.314Z,98323.27
2017-12-29T18:24:12.138Z,98318.85
2017-12-29T18:26:39.758Z,98319.78
2017-12-29T18:29:07.573Z,98326.95
2017-12-29T18:31:35.406Z,98334.44
2017-12-29T18:34:03.849Z,98341.67
2017-12-29T18:36:31.572Z,98334.45
2017-12-29T18:38:59.927Z,98348.41
2017-12-29T18:41:27.500Z,98350.04
2017-12-29T18:43:55.057Z,98353.28
2017-12-29T18:46:22.847Z,98358.11
2017-12-29T18:48:50.473Z,98358.43
2017-12-29T18:51:18.038Z,98363.09
2017-12-29T18:53:46.098Z,98368.38
2017-12-29T18:56:13.665Z,98377.70
2017-12-29T18:58:41.421Z,98376.41
2017-12-29T19:01:09.681Z,98373.71
2017-12-29T19:03:37.261Z,98382.61
2017-12-29T19:06:04.820Z,98390.33
2017-12-29T19:08:32.607Z,98395.48
2017-12-29T19:11:00.190Z,98404.18
2017-12-29T19:13:28.042Z,98390.67
2017-12-29T19:15:55.761Z,98401.47
2017-12-29T19:18:23.579Z,98409.79
2017-12-29T19:20:51.155Z,98409.59
2017-12-29T19:23:18.718Z,98411.27
2017-12-29T19:25:46.353Z,98411.52
2017-12-29T19:28:13.924Z,98410.41
2017-12-29T19:30:41.634Z,98413.66
2017-12-29T19:33:09.487Z,98412.21
2017-12-29T19:35:37.050Z,98431.99
2017-12-29T19:38:04.777Z,98438.03
2017-12-29T19:40:32.342Z,98436.70
2017-12-29T19:43:00.039Z,98438.28
2017-12-29T19:45:27.669Z,98440.21
2017-12-29T19:47:55.230Z,98448.25
2017-12-29T19:50:22.861Z,98455.54
2017-12-29T19:52:50.605Z,98440.45
2017-12-29T19:55:18.241Z,98458.33
2017-12-29T19:57:45.818Z,98428.41
2017-12-29T20:00:13.382Z,98469.56
2017-12-29T20:02:40.994Z,98466.02
2017-12-29T20:05:08.565Z,98464.43
2017-12-29T20:07:36.350Z,98465.06
2017-12-29T20:10:03.982Z,98463.36
2017-12-29T20:12:31.829Z,98470.94
2017-12-29T20:14:59.444Z,98484.18
2017-12-29T20:17:27.211Z,98490.00
2017-12-29T20:19:54.852Z,98491.08
2017-12-29T20:22:22.649Z,98501.31
2017-12-29T20:24:50.213Z,98506.30
2017-12-29T20:27:18.087Z,98505.18
2017-12-29T20:29:45.629Z,98508.40
2017-12-29T20:32:13.187Z,98505.76
2017-12-29T20:34:41.037Z,98517.84
2017-12-29T20:37:08.618Z,98512.75
2017-12-29T20:39:36.439Z,98513.61
2017-12-29T20:42:04.193Z,98518.17
2017-12-29T20:44:31.917Z,98516.03
2017-12-29T20:46:59.514Z,98523.27
2017-12-29T20:49:27.069Z,98528.25
2017-12-29T20:51:54.745Z,98531.66
2017-12-29T20:54:22.461Z,98538.36
2017-12-29T20:56:50.179Z,98546.92
2017-12-29T20:59:17.781Z,98551.32
2017-12-29T21:01:45.367Z,98553.33
2017-12-29T21:04:13.018Z,98562.69
2017-12-29T21:06:40.780Z,98566.88
2017-12-29T21:09:08.362Z,98570.22
2017-12-29T21:11:36.075Z,98568.34
2017-12-29T21:14:03.627Z,98572.10
2017-12-29T21:16:31.408Z,98565.69
2017-12-29T21:18:59.123Z,98575.61
2017-12-29T21:21:26.840Z,98574.72
2017-12-29T21:23:54.657Z,98573.82
2017-12-29T21:26:22.418Z,98583.58
2017-12-29T21:28:50.010Z,98587.92
2017-12-29T21:31:17.583Z,98586.61
2017-12-29T21:33:45.167Z,98588.00
2017-12-29T21:36:12.770Z,98591.32
2017-12-29T21:38:40.380Z,98602.08
2017-12-29T21:41:07.998Z,98597.48
2017-12-29T21:43:35.563Z,98596.15
2017-12-29T21:46:03.135Z,98597.47
2017-12-29T21:48:30.698Z,98601.71
2017-12-29T21:50:58.497Z,98600.42
2017-12-29T21:53:26.120Z,98599.69
2017-12-29T21:55:53.714Z,98601.83
2017-12-29T21:58:21.302Z,98594.45
2017-12-29T22:00:48.904Z,98596.96
2017-12-29T22:03:16.473Z,98593.41
2017-12-29T22:05:44.128Z,98595.38
2017-12-29T22:08:11.694Z,98586.58
2017-12-29T22:10:39.257Z,98593.27
2017-12-29T22:13:06.829Z,98591.87
2017-12-29T22:15:34.394Z,98591.78
2017-12-29T22:18:02.014Z,98605.65
2017-12-29T22:20:29.574Z,98606.27
2017-12-29T22:22:57.138Z,98618.03
2017-12-29T22:25:24.707Z,98620.34
2017-12-29T22:27:52.253Z,98622.61
2017-12-29T22:30:20.081Z,98625.56
2017-12-29T22:32:47.645Z,98636.53
2017-12-29T22:35:15.210Z,98629.33
2017-12-29T22:37:42.813Z,98630.92
2017-12-29T22:40:10.555Z,98618.93
2017-12-29T22:42:38.226Z,98619.89
2017-12-29T22:45:05.808Z,98611.85
2017-12-29T22:47:33.358Z,98612.32
2017-12-29T22:50:01.018Z,98616.55
2017-12-29T22:52:28.589Z,98616.71
2017-12-29T22:54:56.464Z,98625.02
2017-12-29T22:57:24.279Z,98633.51
2017-12-29T22:59:51.999Z,98639.95
2017-12-29T23:02:19.579Z,98636.05
2017-12-29T23:04:47.145Z,98636.97
2017-12-29T23:07:14.954Z,98631.79
2017-12-29T23:09:42.525Z,98641.66
2017-12-29T23:12:10.077Z,98641.89
2017-12-29T23:14:37.673Z,98644.16
2017-12-29T23:17:05.422Z,98653.34
2017-12-29T23:19:33.048Z,98660.02
2017-12-29T23:22:00.860Z,98663.53
2017-12-29T23:24:28.417Z,98652.96
2017-12-29T23:26:56.111Z,98654.42
2017-12-29T23:29:23.661Z,98662.53
2017-12-29T23:31:51.398Z,98651.54
2017-12-29T23:34:19.116Z,98653.70
2017-12-29T23:36:46.673Z,98649.38
2017-12-29T23:39:14.233Z,98654.11
2017-12-29T23:41:41.790Z,98654.70
2017-12-29T23:44:09.387Z,98657.59
2017-12-29T23:46:37.140Z,98665.48
2017-12-29T23:49:04.709Z,98669.55
2017-12-29T23:51:32.281Z,98673.45
2017-12-29T23:53:59.992Z,98681.66
2017-12-29T23:56:27.657Z,98679.63
2017-12-29T23:58:55.402Z,98676.99
